Conover, North Carolina
Current Conditions -  °F | °C
As of 8:53 AM on Tuesday 27 Jan 2015 (Local Time) from KHKY Reporting Station
Overcast Overcast  
Wind Chill: 26°   Ceiling: 8500
Heat Index: 32°   Visibility: 10mi
Dew Point: 18°   Wind: 7mph
Humidity: 56%   Direction: 310°NW
Pressure: 29.83"   Gusts: NA
Location:  35.71°N, 81.22°W
Report Text: KHKY 271353Z 31006KT 10SM OVC085 00/M08 A2983 RMK AO2 SLP099 T00001078
Loading
Personal Weather Stations






























Interactive Weather Map New forecast layout! Learn more

10-Day Weather Forecast

Advertisements
Track Severe Weather on mobile